createdAt,value
2023-05-24T00:02:14.715Z,4.93
2023-05-24T00:04:42.716Z,4.70
2023-05-24T00:07:10.633Z,4.70
2023-05-24T00:09:39.370Z,4.72
2023-05-24T00:12:07.644Z,4.68
2023-05-24T00:14:35.546Z,5.57
2023-05-24T00:17:03.615Z,4.75
2023-05-24T00:19:33.013Z,4.40
2023-05-24T00:22:01.133Z,5.15
2023-05-24T00:24:29.571Z,4.57
2023-05-24T00:26:57.629Z,4.70
2023-05-24T00:29:25.390Z,5.20
2023-05-24T00:31:54.605Z,4.70
2023-05-24T00:34:22.470Z,5.03
2023-05-24T00:36:51.806Z,5.60
2023-05-24T00:39:19.707Z,4.25
2023-05-24T00:41:47.584Z,4.68
2023-05-24T00:44:15.618Z,5.03
2023-05-24T00:46:43.961Z,5.00
2023-05-24T00:49:12.288Z,5.03
2023-05-24T00:51:40.648Z,4.32
2023-05-24T00:54:09.953Z,4.65
2023-05-24T00:56:38.448Z,4.40
2023-05-24T00:59:07.229Z,4.38
2023-05-24T01:01:35.636Z,4.40
2023-05-24T01:04:05.981Z,4.50
2023-05-24T01:06:46.220Z,5.32
2023-05-24T01:09:23.273Z,4.28
2023-05-24T01:12:05.680Z,4.40
2023-05-24T01:14:45.020Z,4.85
2023-05-24T01:17:20.595Z,4.80
2023-05-24T01:19:55.320Z,4.57
2023-05-24T01:22:54.322Z,5.13
2023-05-24T01:25:41.818Z,5.68
2023-05-24T01:28:13.594Z,5.18
2023-05-24T01:30:42.956Z,4.90
2023-05-24T01:33:10.916Z,4.43
2023-05-24T01:35:42.490Z,5.18
2023-05-24T01:38:12.172Z,4.28
2023-05-24T01:40:42.657Z,4.60
2023-05-24T01:43:17.377Z,4.55
2023-05-24T01:45:53.913Z,4.88
2023-05-24T01:48:32.431Z,4.50
2023-05-24T01:51:01.833Z,4.55
2023-05-24T01:53:42.399Z,4.45
2023-05-24T01:56:12.815Z,4.30
2023-05-24T01:58:43.999Z,4.88
2023-05-24T02:01:13.345Z,4.57
2023-05-24T02:03:41.718Z,3.92
2023-05-24T02:06:10.944Z,3.60
2023-05-24T02:08:40.898Z,4.25
2023-05-24T02:11:08.867Z,4.30
2023-05-24T02:13:36.763Z,5.10
2023-05-24T02:16:06.482Z,4.20
2023-05-24T02:18:34.752Z,3.97
2023-05-24T02:21:03.231Z,4.38
2023-05-24T02:23:31.938Z,4.05
2023-05-24T02:26:01.408Z,4.35
2023-05-24T02:28:32.170Z,3.90
2023-05-24T02:31:00.550Z,3.65
2023-05-24T02:33:30.231Z,4.07
2023-05-24T02:35:58.837Z,3.80
2023-05-24T02:38:26.689Z,4.32
2023-05-24T02:40:54.454Z,4.35
2023-05-24T02:43:22.368Z,3.83
2023-05-24T02:45:50.587Z,4.03
2023-05-24T02:48:18.802Z,4.43
2023-05-24T02:50:47.955Z,4.43
2023-05-24T02:53:15.853Z,4.43
2023-05-24T02:55:46.662Z,4.40
2023-05-24T02:58:17.820Z,3.92
2023-05-24T03:00:48.872Z,4.00
2023-05-24T03:03:19.358Z,3.78
2023-05-24T03:05:48.749Z,3.78
2023-05-24T03:08:16.733Z,3.80
2023-05-24T03:10:44.843Z,3.75
2023-05-24T03:13:14.621Z,4.25
2023-05-24T03:15:43.913Z,3.70
2023-05-24T03:18:11.689Z,4.22
2023-05-24T03:20:41.526Z,4.10
2023-05-24T03:23:11.747Z,4.30
2023-05-24T03:25:39.629Z,3.85
2023-05-24T03:28:07.666Z,4.05
2023-05-24T03:30:35.729Z,4.00
2023-05-24T03:33:03.853Z,4.22
2023-05-24T03:35:32.356Z,3.70
2023-05-24T03:38:00.541Z,4.00
2023-05-24T03:40:33.340Z,3.83
2023-05-24T03:43:06.233Z,3.75
2023-05-24T03:45:54.801Z,3.75
2023-05-24T03:48:22.610Z,3.72
2023-05-24T03:50:52.310Z,4.25
2023-05-24T03:53:23.141Z,3.75
2023-05-24T03:55:53.009Z,4.07
2023-05-24T03:58:21.074Z,3.78
2023-05-24T04:00:49.024Z,4.03
2023-05-24T04:03:17.339Z,3.65
2023-05-24T04:05:45.808Z,3.55
2023-05-24T04:08:15.211Z,3.85
2023-05-24T04:10:43.657Z,3.55
2023-05-24T04:13:14.658Z,4.30
2023-05-24T04:15:43.700Z,4.20
2023-05-24T04:18:12.803Z,3.75
2023-05-24T04:20:41.621Z,3.70
2023-05-24T04:23:10.690Z,3.70
2023-05-24T04:25:38.979Z,4.07
2023-05-24T04:28:07.626Z,3.97
2023-05-24T04:30:36.968Z,3.70
2023-05-24T04:33:05.457Z,3.97
2023-05-24T04:35:34.120Z,3.72
2023-05-24T04:38:02.035Z,4.35
2023-05-24T04:40:30.110Z,3.90
2023-05-24T04:42:57.928Z,3.92
2023-05-24T04:45:26.938Z,4.10
2023-05-24T04:47:56.317Z,3.60
2023-05-24T04:50:25.024Z,3.15
2023-05-24T04:52:52.800Z,3.90
2023-05-24T04:55:21.185Z,3.75
2023-05-24T04:57:49.300Z,3.58
2023-05-24T05:00:18.163Z,3.75
2023-05-24T05:02:47.178Z,3.63
2023-05-24T05:05:16.620Z,3.67
2023-05-24T05:07:45.308Z,3.42
2023-05-24T05:10:13.108Z,3.40
2023-05-24T05:12:41.228Z,3.75
2023-05-24T05:15:10.404Z,3.53
2023-05-24T05:17:38.255Z,3.78
2023-05-24T05:20:07.775Z,3.30
2023-05-24T05:22:37.010Z,3.90
2023-05-24T05:25:05.374Z,3.85
2023-05-24T05:27:33.321Z,3.60
2023-05-24T05:30:01.213Z,4.05
2023-05-24T05:32:29.130Z,4.22
2023-05-24T05:34:57.136Z,3.58
2023-05-24T05:37:25.915Z,3.60
2023-05-24T05:39:55.286Z,3.40
2023-05-24T05:42:23.063Z,3.75
2023-05-24T05:44:52.549Z,4.03
2023-05-24T05:47:20.454Z,3.75
2023-05-24T05:49:48.214Z,3.47
2023-05-24T05:52:15.991Z,3.60
2023-05-24T05:54:44.261Z,3.40
2023-05-24T05:57:16.613Z,3.45
2023-05-24T05:59:45.514Z,3.78
2023-05-24T06:02:13.839Z,3.00
2023-05-24T06:04:41.731Z,3.20
2023-05-24T06:07:09.545Z,3.17
2023-05-24T06:09:37.956Z,3.42
2023-05-24T06:12:09.115Z,3.60
2023-05-24T06:14:44.755Z,3.42
2023-05-24T06:17:15.430Z,3.13
2023-05-24T06:19:48.281Z,3.45
2023-05-24T06:22:16.366Z,2.97
2023-05-24T06:24:44.534Z,2.90
2023-05-24T06:27:12.253Z,3.30
2023-05-24T06:29:42.611Z,3.30
2023-05-24T06:32:11.824Z,3.22
2023-05-24T06:34:39.794Z,3.22
2023-05-24T06:37:10.957Z,3.25
2023-05-24T06:39:39.500Z,3.03
2023-05-24T06:42:07.783Z,3.35
2023-05-24T06:44:38.532Z,3.40
2023-05-24T06:47:09.464Z,3.28
2023-05-24T06:49:39.057Z,2.85
2023-05-24T06:52:12.003Z,2.95
2023-05-24T06:54:43.402Z,3.20
2023-05-24T06:57:18.601Z,3.17
2023-05-24T06:59:52.738Z,3.00
2023-05-24T07:02:27.421Z,2.97
2023-05-24T07:04:56.155Z,3.30
2023-05-24T07:07:34.621Z,3.38
2023-05-24T07:10:02.747Z,3.80
2023-05-24T07:12:33.308Z,3.47
2023-05-24T07:15:01.368Z,4.32
2023-05-24T07:17:31.010Z,3.55
2023-05-24T07:19:59.178Z,3.50
2023-05-24T07:22:29.042Z,3.85
2023-05-24T07:24:56.993Z,4.57
2023-05-24T07:27:25.216Z,4.15
2023-05-24T07:29:54.282Z,3.13
2023-05-24T07:32:22.580Z,3.22
2023-05-24T07:34:52.534Z,3.22
2023-05-24T07:37:20.451Z,4.25
2023-05-24T07:39:48.679Z,3.25
2023-05-24T07:42:16.496Z,3.80
2023-05-24T07:44:44.584Z,3.53
2023-05-24T07:47:12.798Z,3.10
2023-05-24T07:49:40.791Z,3.13
2023-05-24T07:52:10.008Z,3.72
2023-05-24T07:54:38.297Z,3.30
2023-05-24T07:57:11.526Z,2.92
2023-05-24T07:59:39.776Z,3.20
2023-05-24T08:02:11.229Z,3.03
2023-05-24T08:04:39.298Z,2.75
2023-05-24T08:07:09.455Z,2.85
2023-05-24T08:09:40.353Z,3.13
2023-05-24T08:12:08.859Z,2.50
2023-05-24T08:14:36.751Z,2.83
2023-05-24T08:17:05.759Z,3.17
2023-05-24T08:19:36.011Z,2.88
2023-05-24T08:22:05.936Z,3.08
2023-05-24T08:24:33.981Z,2.97
2023-05-24T08:27:04.874Z,3.10
2023-05-24T08:29:32.784Z,3.33
2023-05-24T08:32:02.517Z,3.35
2023-05-24T08:34:30.913Z,3.10
2023-05-24T08:36:58.860Z,3.10
2023-05-24T08:39:26.908Z,3.53
2023-05-24T08:42:08.632Z,3.33
2023-05-24T08:44:46.752Z,3.00
2023-05-24T08:47:15.244Z,3.70
2023-05-24T08:49:43.529Z,3.38
2023-05-24T08:52:13.206Z,3.53
2023-05-24T08:54:42.989Z,3.55
2023-05-24T08:57:12.546Z,3.80
2023-05-24T08:59:43.211Z,3.17
2023-05-24T09:02:14.677Z,3.75
2023-05-24T09:04:44.632Z,3.35
2023-05-24T09:07:14.880Z,3.78
2023-05-24T09:09:45.367Z,3.13
2023-05-24T09:12:32.544Z,3.25
2023-05-24T09:15:09.248Z,4.07
2023-05-24T09:17:38.941Z,3.83
2023-05-24T09:20:10.208Z,4.35
2023-05-24T09:22:41.010Z,4.28
2023-05-24T09:25:10.426Z,3.78
2023-05-24T09:27:38.859Z,3.50
2023-05-24T09:30:14.039Z,3.38
2023-05-24T09:32:42.690Z,3.17
2023-05-24T09:35:11.957Z,3.83
2023-05-24T09:37:40.512Z,3.17
2023-05-24T09:40:20.344Z,2.88
2023-05-24T09:42:51.626Z,3.55
2023-05-24T09:45:22.362Z,3.65
2023-05-24T09:47:50.259Z,3.50
2023-05-24T09:50:18.788Z,3.60
2023-05-24T09:52:47.245Z,3.63
2023-05-24T09:55:16.749Z,3.30
2023-05-24T09:57:46.092Z,3.33
2023-05-24T10:00:17.681Z,3.90
2023-05-24T10:02:53.551Z,3.85
2023-05-24T10:05:22.522Z,3.25
2023-05-24T10:07:50.490Z,3.78
2023-05-24T10:10:19.148Z,4.18
2023-05-24T10:12:48.072Z,3.70
2023-05-24T10:15:16.870Z,3.88
2023-05-24T10:17:44.994Z,3.58
2023-05-24T10:20:15.908Z,3.67
2023-05-24T10:22:46.857Z,3.50
2023-05-24T10:25:21.738Z,4.07
2023-05-24T10:27:52.669Z,3.33
2023-05-24T10:30:32.588Z,3.53
2023-05-24T10:33:02.448Z,3.70
2023-05-24T10:35:33.743Z,3.88
2023-05-24T10:38:07.116Z,3.15
2023-05-24T10:40:42.048Z,3.35
2023-05-24T10:43:10.434Z,3.40
2023-05-24T10:45:39.746Z,3.53
2023-05-24T10:48:25.656Z,3.90
2023-05-24T10:50:55.148Z,3.35
2023-05-24T10:53:27.247Z,3.72
2023-05-24T10:55:56.453Z,3.47
2023-05-24T10:58:30.814Z,3.53
2023-05-24T11:00:58.609Z,3.67
2023-05-24T11:03:33.406Z,3.47
2023-05-24T11:06:03.018Z,3.28
2023-05-24T11:08:33.136Z,3.92
2023-05-24T11:11:19.231Z,3.60
2023-05-24T11:13:50.783Z,3.58
2023-05-24T11:16:34.922Z,3.25
2023-05-24T11:19:13.477Z,3.03
2023-05-24T11:21:45.233Z,3.75
2023-05-24T11:24:13.595Z,3.00
2023-05-24T11:26:41.776Z,3.40
2023-05-24T11:29:09.781Z,3.10
2023-05-24T11:31:43.250Z,3.22
2023-05-24T11:34:12.534Z,3.40
2023-05-24T11:36:41.192Z,3.63
2023-05-24T11:39:10.822Z,3.03
2023-05-24T11:41:40.868Z,3.08
2023-05-24T11:44:10.520Z,2.70
2023-05-24T11:46:40.194Z,2.78
2023-05-24T11:49:08.390Z,3.25
2023-05-24T11:51:37.674Z,3.05
2023-05-24T11:54:06.027Z,3.53
2023-05-24T11:56:35.441Z,2.88
2023-05-24T11:59:13.200Z,2.83
2023-05-24T12:01:43.326Z,3.35
2023-05-24T12:04:12.309Z,3.30
2023-05-24T12:06:41.646Z,3.08
2023-05-24T12:09:13.419Z,3.03
2023-05-24T12:11:44.726Z,2.42
2023-05-24T12:14:14.494Z,2.95
2023-05-24T12:16:43.900Z,2.85
2023-05-24T12:19:31.753Z,3.13
2023-05-24T12:22:02.147Z,3.38
2023-05-24T12:24:32.566Z,2.85
2023-05-24T12:27:07.199Z,2.85
2023-05-24T12:29:36.590Z,2.95
2023-05-24T12:32:05.849Z,2.90
2023-05-24T12:34:34.042Z,2.95
2023-05-24T12:37:02.409Z,3.33
2023-05-24T12:39:34.402Z,3.28
2023-05-24T12:42:05.078Z,3.17
2023-05-24T12:44:35.727Z,2.50
2023-05-24T12:47:06.618Z,2.85
2023-05-24T12:49:35.607Z,2.95
2023-05-24T12:52:03.676Z,3.50
2023-05-24T12:54:32.658Z,3.42
2023-05-24T12:57:02.658Z,3.83
2023-05-24T12:59:32.361Z,3.55
2023-05-24T13:02:04.324Z,3.70
2023-05-24T13:04:33.911Z,3.55
2023-05-24T13:07:04.575Z,3.75
2023-05-24T13:09:34.459Z,2.90
2023-05-24T13:12:05.301Z,2.92
2023-05-24T13:14:34.516Z,3.42
2023-05-24T13:17:04.386Z,3.22
2023-05-24T13:19:32.965Z,2.90
2023-05-24T13:22:01.305Z,2.95
2023-05-24T13:24:29.272Z,2.83
2023-05-24T13:26:58.232Z,3.38
2023-05-24T13:32:00.850Z,2.72
2023-05-24T13:34:28.739Z,3.35
2023-05-24T13:36:57.429Z,3.13
2023-05-24T13:39:25.274Z,3.58
2023-05-24T13:41:53.432Z,3.20
2023-05-24T13:44:22.739Z,3.10
2023-05-24T13:46:50.930Z,3.28
2023-05-24T13:49:20.997Z,3.30
2023-05-24T13:51:49.412Z,4.00
2023-05-24T13:54:17.642Z,3.85
2023-05-24T13:56:45.584Z,3.05
2023-05-24T13:59:14.198Z,2.83
2023-05-24T14:01:42.541Z,3.13
2023-05-24T14:04:10.867Z,3.17
2023-05-24T14:06:40.390Z,3.80
2023-05-24T14:09:08.985Z,3.35
2023-05-24T14:11:37.592Z,3.70
2023-05-24T14:16:37.413Z,3.42
2023-05-24T14:19:05.720Z,3.70
2023-05-24T14:21:33.665Z,3.63
2023-05-24T14:24:04.337Z,2.95
2023-05-24T14:26:32.245Z,3.83
2023-05-24T14:29:00.878Z,3.50
2023-05-24T14:31:28.948Z,3.95
2023-05-24T14:33:56.932Z,3.92
2023-05-24T14:36:24.775Z,2.90
2023-05-24T14:38:52.872Z,2.67
2023-05-24T14:41:22.950Z,3.47
2023-05-24T14:43:51.081Z,3.45
2023-05-24T14:46:20.024Z,3.63
2023-05-24T14:48:47.908Z,3.40
2023-05-24T14:51:15.621Z,3.70
2023-05-24T14:53:43.413Z,3.50
2023-05-24T14:56:13.710Z,3.47
2023-05-24T14:58:43.151Z,3.20
2023-05-24T15:01:11.578Z,3.30
2023-05-24T15:03:40.504Z,3.35
2023-05-24T15:06:08.904Z,3.13
2023-05-24T15:08:36.805Z,3.78
2023-05-24T15:11:06.005Z,3.80
2023-05-24T15:13:33.881Z,3.63
2023-05-24T15:16:02.991Z,3.50
2023-05-24T15:18:32.100Z,3.63
2023-05-24T15:21:01.590Z,4.10
2023-05-24T15:23:29.788Z,4.10
2023-05-24T15:25:57.656Z,3.60
2023-05-24T15:28:26.763Z,3.75
2023-05-24T15:30:54.901Z,4.18
2023-05-24T15:33:26.466Z,4.25
2023-05-24T15:35:57.286Z,3.80
2023-05-24T15:38:25.646Z,3.63
2023-05-24T15:40:53.718Z,3.50
2023-05-24T15:43:22.143Z,3.70
2023-05-24T15:45:50.944Z,3.67
2023-05-24T15:48:18.663Z,3.88
2023-05-24T15:51:25.614Z,4.22
2023-05-24T15:53:37.100Z,4.30
2023-05-24T15:56:05.301Z,4.07
2023-05-24T15:58:33.261Z,3.83
2023-05-24T16:01:04.196Z,3.55
2023-05-24T16:03:32.227Z,4.13
2023-05-24T16:06:01.908Z,4.05
2023-05-24T16:08:30.020Z,3.70
2023-05-24T16:10:58.298Z,4.40
2023-05-24T16:13:26.360Z,4.30
2023-05-24T16:15:54.513Z,5.47
2023-05-24T16:18:23.694Z,7.30
2023-05-24T16:20:52.552Z,4.13
2023-05-24T16:23:23.129Z,4.22
2023-05-24T16:25:51.340Z,4.03
2023-05-24T16:28:23.796Z,4.18
2023-05-24T16:30:56.055Z,4.03
2023-05-24T16:33:25.050Z,3.60
2023-05-24T16:35:56.498Z,2.97
2023-05-24T16:38:26.747Z,3.67
2023-05-24T16:40:54.950Z,3.72
2023-05-24T16:43:23.581Z,3.47
2023-05-24T16:45:51.857Z,4.32
2023-05-24T16:48:21.849Z,4.25
2023-05-24T16:50:50.552Z,3.80
2023-05-24T16:53:20.385Z,3.80
2023-05-24T16:55:53.672Z,3.80
2023-05-24T16:58:22.253Z,2.97
2023-05-24T17:00:51.325Z,3.58
2023-05-24T17:03:22.235Z,4.00
2023-05-24T17:05:50.415Z,3.40
2023-05-24T17:08:19.229Z,3.97
2023-05-24T17:10:47.297Z,3.85
2023-05-24T17:13:16.955Z,3.35
2023-05-24T17:15:45.066Z,3.88
2023-05-24T17:18:12.853Z,3.83
2023-05-24T17:20:40.658Z,3.42
2023-05-24T17:23:08.875Z,3.88
2023-05-24T17:25:37.230Z,4.00
2023-05-24T17:28:05.295Z,3.70
2023-05-24T17:30:35.153Z,3.70
2023-05-24T17:33:03.428Z,3.97
2023-05-24T17:35:31.259Z,3.65
2023-05-24T17:37:59.330Z,3.42
2023-05-24T17:40:27.379Z,3.45
2023-05-24T17:42:55.242Z,3.88
2023-05-24T17:45:23.805Z,4.43
2023-05-24T17:47:53.564Z,4.05
2023-05-24T17:50:22.347Z,3.72
2023-05-24T17:52:50.451Z,4.07
2023-05-24T17:55:19.306Z,3.63
2023-05-24T17:57:47.077Z,3.28
2023-05-24T18:00:16.945Z,3.90
2023-05-24T18:02:48.713Z,3.80
2023-05-24T18:05:18.866Z,3.50
2023-05-24T18:07:46.879Z,3.90
2023-05-24T18:10:15.187Z,3.58
2023-05-24T18:12:43.576Z,4.18
2023-05-24T18:15:12.867Z,3.35
2023-05-24T18:17:40.780Z,3.75
2023-05-24T18:20:09.970Z,3.85
2023-05-24T18:22:39.623Z,3.30
2023-05-24T18:25:09.098Z,3.53
2023-05-24T18:27:37.275Z,4.25
2023-05-24T18:30:07.772Z,3.33
2023-05-24T18:32:36.703Z,3.40
2023-05-24T18:35:05.576Z,3.53
2023-05-24T18:37:33.488Z,2.90
2023-05-24T18:40:03.407Z,3.33
2023-05-24T18:42:32.146Z,3.50
2023-05-24T18:44:59.886Z,3.40
2023-05-24T18:47:30.913Z,3.25
2023-05-24T18:49:59.615Z,3.80
2023-05-24T18:52:28.646Z,3.40
2023-05-24T18:54:58.652Z,3.58
2023-05-24T18:57:29.987Z,3.25
2023-05-24T18:59:57.800Z,3.35
2023-05-24T19:02:26.041Z,3.20
2023-05-24T19:04:53.992Z,2.78
2023-05-24T19:07:21.786Z,3.47
2023-05-24T19:09:49.655Z,3.38
2023-05-24T19:12:17.481Z,3.20
2023-05-24T19:14:46.646Z,3.15
2023-05-24T19:17:15.707Z,2.90
2023-05-24T19:19:43.652Z,2.78
2023-05-24T19:22:11.363Z,3.38
2023-05-24T19:24:39.306Z,3.22
2023-05-24T19:27:09.034Z,3.15
2023-05-24T19:29:38.301Z,2.85
2023-05-24T19:32:08.312Z,3.25
2023-05-24T19:34:37.469Z,3.17
2023-05-24T19:37:06.291Z,3.42
2023-05-24T19:39:34.011Z,3.33
2023-05-24T19:42:02.637Z,2.78
2023-05-24T19:44:31.336Z,3.25
2023-05-24T19:46:59.340Z,3.08
2023-05-24T19:49:29.108Z,3.22
2023-05-24T19:51:57.050Z,2.55
2023-05-24T19:54:25.472Z,2.97
2023-05-24T19:56:55.128Z,3.20
2023-05-24T19:59:23.353Z,3.05
2023-05-24T20:01:51.537Z,3.03
2023-05-24T20:04:20.645Z,3.88
2023-05-24T20:06:50.224Z,3.33
2023-05-24T20:09:19.154Z,3.97
2023-05-24T20:11:47.803Z,3.97
2023-05-24T20:14:16.305Z,3.25
2023-05-24T20:16:44.283Z,3.40
2023-05-24T20:19:12.517Z,3.92
2023-05-24T20:21:40.358Z,3.28
2023-05-24T20:24:09.759Z,3.28
2023-05-24T20:26:37.850Z,3.03
2023-05-24T20:29:05.860Z,4.07
2023-05-24T20:31:34.782Z,2.80
2023-05-24T20:34:02.718Z,3.00
2023-05-24T20:36:32.197Z,3.30
2023-05-24T20:39:00.001Z,3.22
2023-05-24T20:41:30.462Z,3.78
2023-05-24T20:43:58.423Z,3.35
2023-05-24T20:46:26.872Z,4.80
2023-05-24T20:48:56.169Z,3.85
2023-05-24T20:51:24.851Z,3.55
2023-05-24T20:53:53.290Z,3.22
2023-05-24T20:56:23.230Z,3.50
2023-05-24T20:58:54.257Z,3.78
2023-05-24T21:01:25.154Z,3.65
2023-05-24T21:03:53.886Z,3.72
2023-05-24T21:06:21.891Z,3.20
2023-05-24T21:08:50.168Z,3.55
2023-05-24T21:11:18.424Z,3.90
2023-05-24T21:13:46.381Z,3.88
2023-05-24T21:16:16.178Z,3.30
2023-05-24T21:18:43.994Z,3.55
2023-05-24T21:21:12.168Z,3.45
2023-05-24T21:23:40.650Z,3.60
2023-05-24T21:26:08.565Z,3.35
2023-05-24T21:28:36.599Z,4.03
2023-05-24T21:31:05.701Z,3.50
2023-05-24T21:33:36.209Z,2.85
2023-05-24T21:36:04.476Z,4.18
2023-05-24T21:38:32.449Z,3.70
2023-05-24T21:41:00.270Z,3.90
2023-05-24T21:43:28.616Z,3.30
2023-05-24T21:45:56.981Z,3.28
2023-05-24T21:48:25.024Z,4.47
2023-05-24T21:50:54.327Z,3.95
2023-05-24T21:53:22.579Z,4.03
2023-05-24T21:55:51.765Z,3.28
2023-05-24T21:58:19.877Z,4.15
2023-05-24T22:00:48.312Z,4.07
2023-05-24T22:03:19.268Z,3.70
2023-05-24T22:05:47.472Z,3.80
2023-05-24T22:08:17.001Z,3.60
2023-05-24T22:10:45.557Z,3.35
2023-05-24T22:13:14.024Z,3.80
2023-05-24T22:15:42.522Z,3.40
2023-05-24T22:18:10.660Z,3.53
2023-05-24T22:20:38.745Z,3.75
2023-05-24T22:23:06.671Z,4.15
2023-05-24T22:25:36.785Z,3.92
2023-05-24T22:28:05.421Z,3.63
2023-05-24T22:30:35.198Z,3.60
2023-05-24T22:33:05.168Z,4.07
2023-05-24T22:35:33.707Z,4.40
2023-05-24T22:38:01.691Z,3.70
2023-05-24T22:40:29.688Z,3.97
2023-05-24T22:42:58.791Z,4.28
2023-05-24T22:45:26.876Z,4.10
2023-05-24T22:47:58.477Z,3.92
2023-05-24T22:50:27.154Z,4.22
2023-05-24T22:52:56.680Z,4.20
2023-05-24T22:55:25.198Z,4.20
2023-05-24T22:57:53.458Z,4.25
2023-05-24T23:00:23.610Z,3.85
2023-05-24T23:02:51.651Z,4.32
2023-05-24T23:05:21.607Z,4.22
2023-05-24T23:07:49.711Z,4.38
2023-05-24T23:10:17.529Z,4.32
2023-05-24T23:12:46.135Z,4.03
2023-05-24T23:15:16.706Z,4.28
2023-05-24T23:17:52.536Z,3.75
2023-05-24T23:20:20.907Z,4.00
2023-05-24T23:22:48.912Z,4.07
2023-05-24T23:25:16.645Z,4.40
2023-05-24T23:27:45.187Z,4.60
2023-05-24T23:30:13.369Z,4.53
2023-05-24T23:32:41.802Z,4.95
2023-05-24T23:35:14.055Z,4.85
2023-05-24T23:37:43.117Z,4.60
2023-05-24T23:40:16.912Z,5.20
2023-05-24T23:42:51.059Z,4.20
2023-05-24T23:45:20.824Z,4.65
2023-05-24T23:47:51.046Z,4.88
2023-05-24T23:50:22.876Z,4.15
2023-05-24T23:52:55.485Z,4.50
2023-05-24T23:55:29.172Z,4.72
2023-05-24T23:57:57.256Z,4.43
